createdAt,value
2023-04-12T00:00:26.778Z,13.70
2023-04-12T00:05:57.733Z,13.20
2023-04-12T00:11:03.504Z,12.90
2023-04-12T00:16:07.801Z,13.30
2023-04-12T00:21:11.767Z,13.30
2023-04-12T00:26:16.308Z,12.60
2023-04-12T00:31:19.815Z,12.50
2023-04-12T00:36:23.436Z,10.10
2023-04-12T00:41:27.572Z,10.90
2023-04-12T00:46:32.674Z,8.90
2023-04-12T00:51:38.192Z,9.20
2023-04-12T00:56:41.938Z,9.90
2023-04-12T01:01:45.731Z,9.80
2023-04-12T01:07:08.182Z,9.10
2023-04-12T01:12:30.125Z,9.30
2023-04-12T01:17:39.522Z,9.20
2023-04-12T01:23:07.362Z,8.40
2023-04-12T01:28:15.186Z,9.90
2023-04-12T01:33:21.306Z,10.90
2023-04-12T01:38:25.181Z,13.60
2023-04-12T01:43:28.597Z,17.40
2023-04-12T01:48:32.113Z,18.30
2023-04-12T01:53:38.189Z,16.00
2023-04-12T01:58:44.263Z,19.50
2023-04-12T02:03:52.182Z,17.10
2023-04-12T02:09:03.376Z,24.10
2023-04-12T02:14:06.793Z,12.70
2023-04-12T02:19:10.871Z,16.40
2023-04-12T02:24:15.149Z,19.00
2023-04-12T02:34:22.900Z,16.80
2023-04-12T02:39:26.543Z,15.70
2023-04-12T02:44:31.391Z,13.30
2023-04-12T02:49:34.675Z,16.30
2023-04-12T02:54:39.622Z,13.90
2023-04-12T02:59:43.344Z,18.00
2023-04-12T03:04:47.412Z,19.00
2023-04-12T03:09:51.875Z,14.80
2023-04-12T03:14:55.732Z,16.20
2023-04-12T03:20:09.935Z,15.60
2023-04-12T03:30:17.037Z,15.30
2023-04-12T03:35:20.555Z,15.70
2023-04-12T03:40:23.955Z,14.30
2023-04-12T03:45:27.996Z,13.80
2023-04-12T03:50:32.220Z,13.00
2023-04-12T04:00:41.090Z,12.60
2023-04-12T04:05:44.708Z,7.70
2023-04-12T04:10:48.330Z,13.80
2023-04-12T04:15:57.189Z,12.20
2023-04-12T04:21:00.791Z,16.50
2023-04-12T04:26:06.473Z,17.80
2023-04-12T04:31:10.907Z,18.50
2023-04-12T04:36:16.196Z,16.20
2023-04-12T04:41:23.043Z,18.00
2023-04-12T04:46:30.655Z,15.50
2023-04-12T04:51:34.185Z,16.70
2023-04-12T04:56:37.585Z,13.30
2023-04-12T05:01:41.621Z,15.20
2023-04-12T05:06:46.674Z,15.10
2023-04-12T05:11:50.192Z,16.10
2023-04-12T05:16:54.443Z,13.50
2023-04-12T05:21:58.539Z,14.50
2023-04-12T05:27:02.262Z,14.40
2023-04-12T05:32:06.235Z,14.30
2023-04-12T05:37:09.566Z,15.10
2023-04-12T05:42:12.955Z,14.70
2023-04-12T05:47:16.632Z,16.10
2023-04-12T05:52:20.056Z,16.80
2023-04-12T05:57:23.553Z,14.80
2023-04-12T06:02:27.756Z,13.60
2023-04-12T06:07:31.310Z,12.80
2023-04-12T06:12:34.828Z,13.10
2023-04-12T06:17:38.692Z,12.70
2023-04-12T06:22:42.273Z,12.90
2023-04-12T06:27:45.608Z,10.50
2023-04-12T06:32:49.102Z,14.20
2023-04-12T06:37:52.602Z,13.60
2023-04-12T06:42:56.784Z,15.00
2023-04-12T06:53:03.790Z,13.90
2023-04-12T06:58:07.688Z,15.10
2023-04-12T07:03:11.192Z,16.10
2023-04-12T07:08:14.824Z,15.60
2023-04-12T07:13:18.341Z,15.60
2023-04-12T07:18:22.080Z,14.70
2023-04-12T07:23:28.340Z,14.30
2023-04-12T07:28:31.808Z,15.50
2023-04-12T07:33:36.896Z,19.40
2023-04-12T07:38:40.834Z,24.40
2023-04-12T07:43:44.253Z,20.80
2023-04-12T07:48:47.765Z,16.60
2023-04-12T07:53:52.114Z,14.50
2023-04-12T07:58:55.655Z,16.10
2023-04-12T08:03:59.455Z,17.40
2023-04-12T08:14:06.464Z,14.00
2023-04-12T08:19:09.979Z,14.30
2023-04-12T08:24:13.521Z,15.10
2023-04-12T08:29:17.219Z,15.70
2023-04-12T08:34:22.691Z,13.40
2023-04-12T08:39:26.294Z,15.30
2023-04-12T08:44:38.324Z,13.00
2023-04-12T08:49:41.719Z,11.40
2023-04-12T08:54:45.316Z,11.90
2023-04-12T08:59:53.108Z,11.60
2023-04-12T09:04:56.913Z,12.10
2023-04-12T09:10:00.504Z,9.40
2023-04-12T09:15:10.458Z,10.40
2023-04-12T09:20:16.652Z,10.80
2023-04-12T09:25:36.799Z,12.90
2023-04-12T09:30:43.410Z,9.70
2023-04-12T09:35:47.773Z,8.50
2023-04-12T09:40:51.303Z,9.70
2023-04-12T09:46:15.014Z,9.00
2023-04-12T09:51:30.107Z,9.30
2023-04-12T09:56:36.081Z,10.20
2023-04-12T10:01:41.400Z,8.90
2023-04-12T10:06:46.190Z,9.70
2023-04-12T10:11:52.209Z,8.70
2023-04-12T10:17:00.232Z,9.00
2023-04-12T10:22:03.588Z,7.80
2023-04-12T10:27:07.292Z,8.60
2023-04-12T10:32:25.895Z,9.40
2023-04-12T10:38:08.415Z,9.00
2023-04-12T10:43:29.214Z,10.40
2023-04-12T10:48:39.680Z,9.60
2023-04-12T10:53:43.607Z,9.30
2023-04-12T10:58:57.132Z,10.50
2023-04-12T11:04:22.023Z,8.40
2023-04-12T11:09:35.303Z,8.00
2023-04-12T11:14:50.302Z,9.10
2023-04-12T11:20:00.015Z,9.20
2023-04-12T11:25:03.673Z,9.60
2023-04-12T11:35:11.009Z,10.20
2023-04-12T11:40:15.246Z,10.00
2023-04-12T11:45:21.940Z,9.70
2023-04-12T11:50:31.387Z,11.00
2023-04-12T11:55:34.956Z,10.30
2023-04-12T12:00:38.726Z,11.60
2023-04-12T12:05:43.003Z,11.40
2023-04-12T12:11:06.264Z,11.30
2023-04-12T12:16:13.454Z,9.30
2023-04-12T12:21:16.958Z,10.50
2023-04-12T12:26:31.118Z,10.00
2023-04-12T12:31:34.558Z,10.70
2023-04-12T12:36:39.168Z,9.10
2023-04-12T12:41:42.746Z,9.20
2023-04-12T12:46:53.438Z,8.80
2023-04-12T12:51:59.048Z,9.20
2023-04-12T12:57:03.846Z,8.60
2023-04-12T13:02:08.186Z,9.60
2023-04-12T13:07:12.157Z,8.90
2023-04-12T13:12:16.581Z,8.40
2023-04-12T13:17:21.264Z,8.20
2023-04-12T13:22:25.871Z,6.90
2023-04-12T13:27:29.363Z,8.80
2023-04-12T13:37:36.716Z,8.10
2023-04-12T13:47:43.871Z,7.70
2023-04-12T13:52:47.423Z,6.60
2023-04-12T13:57:51.009Z,7.30
2023-04-12T14:02:54.540Z,9.00
2023-04-12T14:08:01.855Z,7.10
2023-04-12T14:13:05.533Z,7.50
2023-04-12T14:18:08.949Z,7.30
2023-04-12T14:23:13.034Z,6.40
2023-04-12T14:28:22.127Z,4.60
2023-04-12T14:33:25.736Z,7.10
2023-04-12T14:38:29.150Z,5.10
2023-04-12T14:43:32.979Z,5.10
2023-04-12T14:48:36.490Z,5.50
2023-04-12T14:53:41.049Z,5.30
2023-04-12T14:58:44.509Z,4.10
2023-04-12T15:03:48.148Z,4.80
2023-04-12T15:08:55.318Z,4.00
2023-04-12T15:13:59.466Z,5.60
2023-04-12T15:19:10.002Z,4.70
2023-04-12T15:24:27.415Z,3.60
2023-04-12T15:29:31.340Z,4.10
2023-04-12T15:34:35.582Z,3.60
2023-04-12T15:39:40.210Z,3.60
2023-04-12T15:44:45.573Z,3.70
2023-04-12T15:49:48.891Z,3.80
2023-04-12T15:54:52.392Z,3.70
2023-04-12T15:59:58.057Z,4.20
2023-04-12T16:05:01.620Z,20.70
2023-04-12T16:10:06.535Z,9.90
2023-04-12T16:15:10.554Z,7.60
2023-04-12T16:20:33.558Z,10.70
2023-04-12T16:25:37.140Z,5.10
2023-04-12T16:30:41.094Z,4.30
2023-04-12T16:35:44.588Z,4.20
2023-04-12T16:40:48.311Z,5.70
2023-04-12T16:45:51.930Z,4.80
2023-04-12T16:50:55.542Z,5.50
2023-04-12T16:56:04.901Z,6.00
2023-04-12T17:01:08.522Z,9.60
2023-04-12T17:06:12.260Z,5.60
2023-04-12T17:11:15.855Z,7.90
2023-04-12T17:16:36.390Z,6.80
2023-04-12T17:21:42.857Z,6.30
2023-04-12T17:26:46.794Z,8.10
2023-04-12T17:31:54.272Z,7.50
2023-04-12T17:36:58.624Z,9.00
2023-04-12T17:42:02.241Z,20.30
2023-04-12T17:47:05.747Z,7.40
2023-04-12T17:52:11.242Z,10.90
2023-04-12T17:57:14.624Z,17.80
2023-04-12T18:02:18.083Z,15.20
2023-04-12T18:07:21.760Z,13.50
2023-04-12T18:12:25.280Z,26.10
2023-04-12T18:17:28.935Z,33.80
2023-04-12T18:22:32.719Z,25.40
2023-04-12T18:27:36.374Z,39.30
2023-04-12T18:32:39.888Z,31.30
2023-04-12T18:37:44.287Z,9.70
2023-04-12T18:42:47.805Z,7.70
2023-04-12T18:47:53.218Z,16.90
2023-04-12T18:52:56.685Z,17.30
2023-04-12T18:58:00.259Z,14.50
2023-04-12T19:03:04.199Z,17.40
2023-04-12T19:08:08.154Z,17.90
2023-04-12T19:13:11.796Z,27.30
2023-04-12T19:18:15.288Z,26.40
2023-04-12T19:23:18.895Z,25.00
2023-04-12T19:28:30.814Z,17.40
2023-04-12T19:33:34.643Z,16.60
2023-04-12T19:38:41.676Z,16.00
2023-04-12T19:43:45.147Z,17.10
2023-04-12T19:48:49.060Z,15.60
2023-04-12T19:53:54.929Z,15.70
2023-04-12T19:58:58.861Z,15.60
2023-04-12T20:04:05.839Z,15.70
2023-04-12T20:09:11.649Z,16.40
2023-04-12T20:14:17.144Z,15.70
2023-04-12T20:19:21.110Z,17.40
2023-04-12T20:24:25.855Z,19.20
2023-04-12T20:29:34.847Z,17.50
2023-04-12T20:34:38.459Z,18.50
2023-04-12T20:39:42.237Z,28.90
2023-04-12T20:44:45.856Z,23.30
2023-04-12T20:49:49.373Z,15.90
2023-04-12T20:54:53.808Z,20.20
2023-04-12T20:59:57.325Z,21.50
2023-04-12T21:05:00.840Z,22.40
2023-04-12T21:10:04.638Z,20.50
2023-04-12T21:15:09.587Z,23.70
2023-04-12T21:20:17.018Z,22.80
2023-04-12T21:25:21.565Z,21.40
2023-04-12T21:30:25.079Z,20.80
2023-04-12T21:35:30.482Z,20.10
2023-04-12T21:40:33.851Z,21.50
2023-04-12T21:45:38.978Z,22.70
2023-04-12T21:50:42.417Z,23.20
2023-04-12T21:55:46.046Z,23.30
2023-04-12T22:00:49.375Z,22.20
2023-04-12T22:06:03.440Z,22.70
2023-04-12T22:11:09.797Z,21.70
2023-04-12T22:16:14.162Z,24.80
2023-04-12T22:21:18.058Z,24.40
2023-04-12T22:26:21.569Z,21.80
2023-04-12T22:31:26.483Z,19.80
2023-04-12T22:36:30.006Z,22.60
2023-04-12T22:41:33.956Z,21.40
2023-04-12T22:46:39.171Z,18.30
2023-04-12T22:51:43.342Z,22.90
2023-04-12T22:56:47.287Z,21.20
2023-04-12T23:01:50.870Z,22.60
2023-04-12T23:06:57.680Z,19.40
2023-04-12T23:12:02.058Z,17.80
2023-04-12T23:22:09.368Z,16.80
2023-04-12T23:27:13.377Z,16.40
2023-04-12T23:32:16.789Z,16.80
2023-04-12T23:37:20.305Z,17.80
2023-04-12T23:42:23.719Z,15.10
2023-04-12T23:47:27.439Z,16.00
2023-04-12T23:52:32.695Z,13.30
2023-04-12T23:57:36.109Z,17.10
